sensor_id;sensor_type;location;lat;lon;timestamp;temperature;humidity
25556;DHT22;13447;57.174;-2.112;2022-09-01T00:00:01;9.40;99.90
25556;DHT22;13447;57.174;-2.112;2022-09-01T00:02:29;9.30;99.90
25556;DHT22;13447;57.174;-2.112;2022-09-01T00:04:56;9.30;99.90
25556;DHT22;13447;57.174;-2.112;2022-09-01T03:08:18;7.80;99.90
25556;DHT22;13447;57.174;-2.112;2022-09-01T03:10:46;7.70;99.90
25556;DHT22;13447;57.174;-2.112;2022-09-01T03:13:16;7.70;99.90
25556;DHT22;13447;57.174;-2.112;2022-09-01T03:15:44;7.70;99.90
25556;DHT22;13447;57.174;-2.112;2022-09-01T03:18:13;7.70;99.90
25556;DHT22;13447;57.174;-2.112;2022-09-01T03:20:42;7.70;99.90
25556;DHT22;13447;57.174;-2.112;2022-09-01T03:23:14;7.60;99.90
25556;DHT22;13447;57.174;-2.112;2022-09-01T03:25:46;7.60;99.90
25556;DHT22;13447;57.174;-2.112;2022-09-01T03:28:14;7.60;99.90
25556;DHT22;13447;57.174;-2.112;2022-09-01T03:30:50;7.60;99.90
25556;DHT22;13447;57.174;-2.112;2022-09-01T03:33:19;7.60;99.90
25556;DHT22;13447;57.174;-2.112;2022-09-01T03:35:47;7.60;99.90
25556;DHT22;13447;57.174;-2.112;2022-09-01T03:38:14;7.60;99.90
25556;DHT22;13447;57.174;-2.112;2022-09-01T03:40:48;7.50;99.90
25556;DHT22;13447;57.174;-2.112;2022-09-01T03:43:15;7.50;99.90
25556;DHT22;13447;57.174;-2.112;2022-09-01T03:45:42;7.50;99.90
25556;DHT22;13447;57.174;-2.112;2022-09-01T03:48:11;7.50;99.90
25556;DHT22;13447;57.174;-2.112;2022-09-01T03:50:43;7.50;99.90
25556;DHT22;13447;57.174;-2.112;2022-09-01T03:53:13;7.50;99.90
25556;DHT22;13447;57.174;-2.112;2022-09-01T03:55:43;7.50;99.90
25556;DHT22;13447;57.174;-2.112;2022-09-01T03:58:13;7.50;99.90
25556;DHT22;13447;57.174;-2.112;2022-09-01T04:00:42;7.60;99.90
25556;DHT22;13447;57.174;-2.112;2022-09-01T04:03:15;7.50;99.90
25556;DHT22;13447;57.174;-2.112;2022-09-01T04:05:54;7.50;99.90
25556;DHT22;13447;57.174;-2.112;2022-09-01T04:08:22;7.50;99.90
25556;DHT22;13447;57.174;-2.112;2022-09-01T04:11:02;7.50;99.90
25556;DHT22;13447;57.174;-2.112;2022-09-01T04:13:37;7.50;99.90
25556;DHT22;13447;57.174;-2.112;2022-09-01T04:16:05;7.50;99.90
25556;DHT22;13447;57.174;-2.112;2022-09-01T04:18:37;7.40;99.90
25556;DHT22;13447;57.174;-2.112;2022-09-01T04:21:06;7.30;99.90
25556;DHT22;13447;57.174;-2.112;2022-09-01T04:23:35;7.30;99.90
25556;DHT22;13447;57.174;-2.112;2022-09-01T04:26:06;7.30;99.90
25556;DHT22;13447;57.174;-2.112;2022-09-01T04:28:46;7.20;99.90
25556;DHT22;13447;57.174;-2.112;2022-09-01T04:31:18;7.20;99.90
25556;DHT22;13447;57.174;-2.112;2022-09-01T04:33:48;7.20;99.90
25556;DHT22;13447;57.174;-2.112;2022-09-01T04:38:51;7.10;99.90
25556;DHT22;13447;57.174;-2.112;2022-09-01T04:41:22;7.10;99.90
25556;DHT22;13447;57.174;-2.112;2022-09-01T04:43:52;7.10;99.90
25556;DHT22;13447;57.174;-2.112;2022-09-01T04:46:24;7.10;99.90
25556;DHT22;13447;57.174;-2.112;2022-09-01T04:48:55;7.10;99.90
25556;DHT22;13447;57.174;-2.112;2022-09-01T04:51:24;7.10;99.90
25556;DHT22;13447;57.174;-2.112;2022-09-01T04:53:54;7.10;99.90
25556;DHT22;13447;57.174;-2.112;2022-09-01T04:56:25;7.10;99.90
25556;DHT22;13447;57.174;-2.112;2022-09-01T04:58:52;7.20;99.90
25556;DHT22;13447;57.174;-2.112;2022-09-01T05:01:23;7.20;99.90
25556;DHT22;13447;57.174;-2.112;2022-09-01T05:03:52;7.20;99.90
25556;DHT22;13447;57.174;-2.112;2022-09-01T05:06:29;7.20;99.90
25556;DHT22;13447;57.174;-2.112;2022-09-01T08:39:07;13.70;99.90
25556;DHT22;13447;57.174;-2.112;2022-09-01T08:42:08;13.70;99.90
25556;DHT22;13447;57.174;-2.112;2022-09-01T08:45:10;13.80;99.90
25556;DHT22;13447;57.174;-2.112;2022-09-01T08:47:38;14.50;99.90
25556;DHT22;13447;57.174;-2.112;2022-09-01T08:50:26;15.40;99.90
25556;DHT22;13447;57.174;-2.112;2022-09-01T08:53:04;16.00;99.90
25556;DHT22;13447;57.174;-2.112;2022-09-01T08:55:44;16.40;99.90
25556;DHT22;13447;57.174;-2.112;2022-09-01T08:58:15;16.90;99.30
25556;DHT22;13447;57.174;-2.112;2022-09-01T09:00:45;17.20;99.80
25556;DHT22;13447;57.174;-2.112;2022-09-01T09:03:44;18.00;98.30
25556;DHT22;13447;57.174;-2.112;2022-09-01T09:06:50;17.90;94.90
25556;DHT22;13447;57.174;-2.112;2022-09-01T09:09:20;18.00;94.30
25556;DHT22;13447;57.174;-2.112;2022-09-01T09:15:41;18.80;93.00
25556;DHT22;13447;57.174;-2.112;2022-09-01T09:21:35;19.50;90.50
25556;DHT22;13447;57.174;-2.112;2022-09-01T09:24:19;19.90;87.90
25556;DHT22;13447;57.174;-2.112;2022-09-01T09:26:53;19.70;87.00
25556;DHT22;13447;57.174;-2.112;2022-09-01T09:29:21;19.50;88.10
25556;DHT22;13447;57.174;-2.112;2022-09-01T09:32:04;19.80;87.00
25556;DHT22;13447;57.174;-2.112;2022-09-01T09:34:40;19.80;85.90
25556;DHT22;13447;57.174;-2.112;2022-09-01T09:42:31;20.10;85.30
25556;DHT22;13447;57.174;-2.112;2022-09-01T09:45:02;20.70;85.00
25556;DHT22;13447;57.174;-2.112;2022-09-01T09:47:42;20.50;84.10
25556;DHT22;13447;57.174;-2.112;2022-09-01T09:50:22;21.00;85.80
25556;DHT22;13447;57.174;-2.112;2022-09-01T09:52:52;20.70;84.80
25556;DHT22;13447;57.174;-2.112;2022-09-01T09:57:57;21.50;82.90
25556;DHT22;13447;57.174;-2.112;2022-09-01T10:00:26;21.80;82.10
25556;DHT22;13447;57.174;-2.112;2022-09-01T10:02:57;21.40;82.90
25556;DHT22;13447;57.174;-2.112;2022-09-01T10:05:42;21.10;81.30
25556;DHT22;13447;57.174;-2.112;2022-09-01T10:08:13;21.20;81.30
25556;DHT22;13447;57.174;-2.112;2022-09-01T10:10:44;21.50;79.90
25556;DHT22;13447;57.174;-2.112;2022-09-01T10:13:26;21.00;80.80
25556;DHT22;13447;57.174;-2.112;2022-09-01T10:16:06;21.40;81.70
25556;DHT22;13447;57.174;-2.112;2022-09-01T10:18:41;21.10;81.00
25556;DHT22;13447;57.174;-2.112;2022-09-01T10:21:16;20.70;81.50
25556;DHT22;13447;57.174;-2.112;2022-09-01T10:23:48;21.00;81.90
25556;DHT22;13447;57.174;-2.112;2022-09-01T10:26:21;21.40;80.10
25556;DHT22;13447;57.174;-2.112;2022-09-01T10:29:04;21.70;80.70
25556;DHT22;13447;57.174;-2.112;2022-09-01T10:31:33;22.00;77.90
25556;DHT22;13447;57.174;-2.112;2022-09-01T10:34:03;21.60;78.20
25556;DHT22;13447;57.174;-2.112;2022-09-01T10:36:33;21.70;81.00
25556;DHT22;13447;57.174;-2.112;2022-09-01T10:39:03;21.80;79.30
25556;DHT22;13447;57.174;-2.112;2022-09-01T10:44:24;21.70;79.50
25556;DHT22;13447;57.174;-2.112;2022-09-01T10:47:02;21.50;79.00
25556;DHT22;13447;57.174;-2.112;2022-09-01T10:57:52;21.10;79.40
25556;DHT22;13447;57.174;-2.112;2022-09-01T11:06:08;21.90;79.10
25556;DHT22;13447;57.174;-2.112;2022-09-01T11:08:40;21.50;78.40
25556;DHT22;13447;57.174;-2.112;2022-09-01T11:13:53;22.00;78.50
25556;DHT22;13447;57.174;-2.112;2022-09-01T11:16:37;21.70;77.00
25556;DHT22;13447;57.174;-2.112;2022-09-01T11:22:20;21.60;80.00
25556;DHT22;13447;57.174;-2.112;2022-09-01T11:33:39;22.30;77.20
25556;DHT22;13447;57.174;-2.112;2022-09-01T11:41:28;22.10;77.50
25556;DHT22;13447;57.174;-2.112;2022-09-01T11:44:01;22.10;77.30
25556;DHT22;13447;57.174;-2.112;2022-09-01T11:46:34;22.20;78.20
25556;DHT22;13447;57.174;-2.112;2022-09-01T11:49:07;22.30;77.00
25556;DHT22;13447;57.174;-2.112;2022-09-01T11:51:46;22.60;76.80
25556;DHT22;13447;57.174;-2.112;2022-09-01T11:54:14;22.80;75.10
25556;DHT22;13447;57.174;-2.112;2022-09-01T11:56:41;22.60;73.50
25556;DHT22;13447;57.174;-2.112;2022-09-01T11:59:08;22.40;75.20
25556;DHT22;13447;57.174;-2.112;2022-09-01T12:01:37;22.50;73.50
25556;DHT22;13447;57.174;-2.112;2022-09-01T12:04:37;22.70;73.20
25556;DHT22;13447;57.174;-2.112;2022-09-01T12:07:07;22.50;74.00
25556;DHT22;13447;57.174;-2.112;2022-09-01T12:09:41;22.80;73.80
25556;DHT22;13447;57.174;-2.112;2022-09-01T12:12:35;22.80;73.00
25556;DHT22;13447;57.174;-2.112;2022-09-01T12:15:22;23.10;72.50
25556;DHT22;13447;57.174;-2.112;2022-09-01T12:17:51;23.00;72.00
25556;DHT22;13447;57.174;-2.112;2022-09-01T12:20:26;22.90;72.10
25556;DHT22;13447;57.174;-2.112;2022-09-01T12:22:57;23.30;70.80
25556;DHT22;13447;57.174;-2.112;2022-09-01T12:25:32;23.60;70.80
25556;DHT22;13447;57.174;-2.112;2022-09-01T12:28:01;23.30;70.00
25556;DHT22;13447;57.174;-2.112;2022-09-01T12:30:29;23.10;70.50
25556;DHT22;13447;57.174;-2.112;2022-09-01T12:33:02;22.80;70.30
25556;DHT22;13447;57.174;-2.112;2022-09-01T12:36:14;23.20;70.10
25556;DHT22;13447;57.174;-2.112;2022-09-01T12:38:42;23.50;68.30
25556;DHT22;13447;57.174;-2.112;2022-09-01T12:41:41;23.10;70.70
25556;DHT22;13447;57.174;-2.112;2022-09-01T12:47:10;23.10;70.80
25556;DHT22;13447;57.174;-2.112;2022-09-01T12:49:44;23.00;70.00
25556;DHT22;13447;57.174;-2.112;2022-09-01T12:52:21;22.70;68.90
25556;DHT22;13447;57.174;-2.112;2022-09-01T12:55:15;22.20;72.50
25556;DHT22;13447;57.174;-2.112;2022-09-01T12:58:07;22.30;71.80
25556;DHT22;13447;57.174;-2.112;2022-09-01T13:00:59;22.30;71.90
25556;DHT22;13447;57.174;-2.112;2022-09-01T13:03:28;22.30;72.20
25556;DHT22;13447;57.174;-2.112;2022-09-01T13:05:57;22.50;72.60
25556;DHT22;13447;57.174;-2.112;2022-09-01T13:08:33;23.20;69.10
25556;DHT22;13447;57.174;-2.112;2022-09-01T13:11:10;23.20;68.50
25556;DHT22;13447;57.174;-2.112;2022-09-01T13:13:39;23.60;69.20
25556;DHT22;13447;57.174;-2.112;2022-09-01T13:16:08;22.90;68.20
25556;DHT22;13447;57.174;-2.112;2022-09-01T13:18:41;22.80;69.30
25556;DHT22;13447;57.174;-2.112;2022-09-01T13:21:29;22.70;68.50
25556;DHT22;13447;57.174;-2.112;2022-09-01T13:23:57;22.40;69.80
25556;DHT22;13447;57.174;-2.112;2022-09-01T13:26:24;22.50;69.40
25556;DHT22;13447;57.174;-2.112;2022-09-01T13:28:52;22.40;69.30
25556;DHT22;13447;57.174;-2.112;2022-09-01T13:31:19;22.40;69.10
25556;DHT22;13447;57.174;-2.112;2022-09-01T13:33:55;21.90;70.60
25556;DHT22;13447;57.174;-2.112;2022-09-01T13:36:42;21.50;72.20
25556;DHT22;13447;57.174;-2.112;2022-09-01T13:39:15;20.80;76.30
25556;DHT22;13447;57.174;-2.112;2022-09-01T13:41:44;20.40;78.30
25556;DHT22;13447;57.174;-2.112;2022-09-01T13:44:13;20.00;79.60
25556;DHT22;13447;57.174;-2.112;2022-09-01T13:46:43;19.50;81.90
25556;DHT22;13447;57.174;-2.112;2022-09-01T13:49:31;19.30;82.90
25556;DHT22;13447;57.174;-2.112;2022-09-01T13:52:18;19.00;85.50
25556;DHT22;13447;57.174;-2.112;2022-09-01T13:54:45;18.70;88.20
25556;DHT22;13447;57.174;-2.112;2022-09-01T13:57:13;18.70;88.60
25556;DHT22;13447;57.174;-2.112;2022-09-01T13:59:42;18.60;89.80
25556;DHT22;13447;57.174;-2.112;2022-09-01T14:02:09;18.50;90.60
25556;DHT22;13447;57.174;-2.112;2022-09-01T14:04:37;18.40;98.30
25556;DHT22;13447;57.174;-2.112;2022-09-01T14:07:05;18.40;97.60
25556;DHT22;13447;57.174;-2.112;2022-09-01T14:09:32;18.40;96.90
25556;DHT22;13447;57.174;-2.112;2022-09-01T14:11:59;18.50;94.40
25556;DHT22;13447;57.174;-2.112;2022-09-01T14:14:26;18.30;93.50
25556;DHT22;13447;57.174;-2.112;2022-09-01T14:19:41;18.10;93.60
25556;DHT22;13447;57.174;-2.112;2022-09-01T14:22:08;18.20;93.90
25556;DHT22;13447;57.174;-2.112;2022-09-01T14:24:35;18.30;93.50
25556;DHT22;13447;57.174;-2.112;2022-09-01T14:27:06;18.30;93.20
25556;DHT22;13447;57.174;-2.112;2022-09-01T14:29:33;18.30;93.10
25556;DHT22;13447;57.174;-2.112;2022-09-01T14:32:02;18.30;92.70
25556;DHT22;13447;57.174;-2.112;2022-09-01T14:34:29;18.20;93.40
25556;DHT22;13447;57.174;-2.112;2022-09-01T14:36:56;18.00;94.00
25556;DHT22;13447;57.174;-2.112;2022-09-01T14:39:24;17.90;94.50
25556;DHT22;13447;57.174;-2.112;2022-09-01T14:41:52;17.90;94.90
25556;DHT22;13447;57.174;-2.112;2022-09-01T14:44:19;17.90;95.10
25556;DHT22;13447;57.174;-2.112;2022-09-01T14:46:46;18.00;95.10
25556;DHT22;13447;57.174;-2.112;2022-09-01T14:49:13;18.00;94.90
25556;DHT22;13447;57.174;-2.112;2022-09-01T14:51:47;18.00;95.20
25556;DHT22;13447;57.174;-2.112;2022-09-01T14:54:36;18.00;94.90
25556;DHT22;13447;57.174;-2.112;2022-09-01T14:57:05;18.10;95.00
25556;DHT22;13447;57.174;-2.112;2022-09-01T14:59:52;18.10;94.60
25556;DHT22;13447;57.174;-2.112;2022-09-01T15:02:19;18.10;94.60
25556;DHT22;13447;57.174;-2.112;2022-09-01T15:04:47;18.00;94.50
25556;DHT22;13447;57.174;-2.112;2022-09-01T15:07:40;17.90;94.90
25556;DHT22;13447;57.174;-2.112;2022-09-01T15:10:09;17.90;94.70
25556;DHT22;13447;57.174;-2.112;2022-09-01T15:12:42;18.00;95.40
25556;DHT22;13447;57.174;-2.112;2022-09-01T15:15:10;17.90;95.00
25556;DHT22;13447;57.174;-2.112;2022-09-01T15:17:37;17.90;94.90
25556;DHT22;13447;57.174;-2.112;2022-09-01T15:20:07;17.70;95.70
25556;DHT22;13447;57.174;-2.112;2022-09-01T15:22:53;17.60;95.70
25556;DHT22;13447;57.174;-2.112;2022-09-01T15:25:21;17.60;96.30
25556;DHT22;13447;57.174;-2.112;2022-09-01T15:27:48;17.60;96.40
25556;DHT22;13447;57.174;-2.112;2022-09-01T15:30:16;17.70;96.10
25556;DHT22;13447;57.174;-2.112;2022-09-01T15:32:52;17.70;96.10
25556;DHT22;13447;57.174;-2.112;2022-09-01T15:35:21;17.70;96.60
25556;DHT22;13447;57.174;-2.112;2022-09-01T15:37:50;17.70;96.60
25556;DHT22;13447;57.174;-2.112;2022-09-01T15:40:18;17.70;96.60
25556;DHT22;13447;57.174;-2.112;2022-09-01T15:42:45;17.70;96.00
25556;DHT22;13447;57.174;-2.112;2022-09-01T15:45:15;17.70;96.00
25556;DHT22;13447;57.174;-2.112;2022-09-01T15:47:43;17.60;95.90
25556;DHT22;13447;57.174;-2.112;2022-09-01T15:50:13;17.60;95.90
25556;DHT22;13447;57.174;-2.112;2022-09-01T15:52:56;17.40;96.20
25556;DHT22;13447;57.174;-2.112;2022-09-01T15:55:30;17.30;97.10
25556;DHT22;13447;57.174;-2.112;2022-09-01T15:58:02;17.30;97.80
25556;DHT22;13447;57.174;-2.112;2022-09-01T16:00:30;17.20;98.80
25556;DHT22;13447;57.174;-2.112;2022-09-01T16:02:57;17.20;98.60
25556;DHT22;13447;57.174;-2.112;2022-09-01T16:05:32;17.20;98.80
25556;DHT22;13447;57.174;-2.112;2022-09-01T16:08:01;17.00;99.00
25556;DHT22;13447;57.174;-2.112;2022-09-01T16:10:30;17.10;99.40
25556;DHT22;13447;57.174;-2.112;2022-09-01T16:13:02;17.10;99.90
25556;DHT22;13447;57.174;-2.112;2022-09-01T16:15:32;17.20;99.90
25556;DHT22;13447;57.174;-2.112;2022-09-01T16:23:19;17.10;99.90
25556;DHT22;13447;57.174;-2.112;2022-09-01T16:25:47;17.00;99.90
25556;DHT22;13447;57.174;-2.112;2022-09-01T16:28:29;17.00;99.90
25556;DHT22;13447;57.174;-2.112;2022-09-01T16:31:10;17.00;99.90
25556;DHT22;13447;57.174;-2.112;2022-09-01T16:33:38;16.90;99.90
25556;DHT22;13447;57.174;-2.112;2022-09-01T16:49:59;16.80;99.90
25556;DHT22;13447;57.174;-2.112;2022-09-01T16:58:22;17.00;99.90
25556;DHT22;13447;57.174;-2.112;2022-09-01T17:03:41;16.90;99.90
25556;DHT22;13447;57.174;-2.112;2022-09-01T17:06:22;16.90;99.90
25556;DHT22;13447;57.174;-2.112;2022-09-01T17:09:07;16.90;99.90
25556;DHT22;13447;57.174;-2.112;2022-09-01T17:11:51;16.90;99.90
25556;DHT22;13447;57.174;-2.112;2022-09-01T17:14:33;16.80;99.90
25556;DHT22;13447;57.174;-2.112;2022-09-01T17:17:08;16.90;99.90
25556;DHT22;13447;57.174;-2.112;2022-09-01T17:19:38;16.90;99.90
25556;DHT22;13447;57.174;-2.112;2022-09-01T17:22:10;16.90;99.90
25556;DHT22;13447;57.174;-2.112;2022-09-01T17:24:45;16.90;99.90
25556;DHT22;13447;57.174;-2.112;2022-09-01T17:27:32;16.90;99.90
25556;DHT22;13447;57.174;-2.112;2022-09-01T17:30:02;16.60;99.90
25556;DHT22;13447;57.174;-2.112;2022-09-01T17:33:02;16.70;99.90
25556;DHT22;13447;57.174;-2.112;2022-09-01T17:36:05;16.70;99.90
25556;DHT22;13447;57.174;-2.112;2022-09-01T18:43:32;15.80;99.90
25556;DHT22;13447;57.174;-2.112;2022-09-01T18:51:50;15.80;99.90
25556;DHT22;13447;57.174;-2.112;2022-09-01T18:54:32;15.70;99.90
25556;DHT22;13447;57.174;-2.112;2022-09-01T18:57:04;15.70;99.90
25556;DHT22;13447;57.174;-2.112;2022-09-01T18:59:36;15.70;99.90
25556;DHT22;13447;57.174;-2.112;2022-09-01T19:05:06;15.60;99.90
25556;DHT22;13447;57.174;-2.112;2022-09-01T19:07:40;15.50;99.90
25556;DHT22;13447;57.174;-2.112;2022-09-01T19:16:36;15.40;99.90
25556;DHT22;13447;57.174;-2.112;2022-09-01T19:21:40;15.40;99.90
25556;DHT22;13447;57.174;-2.112;2022-09-01T19:24:29;15.40;99.90
25556;DHT22;13447;57.174;-2.112;2022-09-01T19:27:19;15.30;99.90
25556;DHT22;13447;57.174;-2.112;2022-09-01T19:29:53;15.30;99.90
25556;DHT22;13447;57.174;-2.112;2022-09-01T19:32:26;15.30;99.90
25556;DHT22;13447;57.174;-2.112;2022-09-01T19:34:58;15.20;99.90
25556;DHT22;13447;57.174;-2.112;2022-09-01T19:37:28;15.20;99.90
25556;DHT22;13447;57.174;-2.112;2022-09-01T19:39:55;15.20;99.90
25556;DHT22;13447;57.174;-2.112;2022-09-01T19:45:34;15.10;99.90
25556;DHT22;13447;57.174;-2.112;2022-09-01T19:48:20;15.10;99.90
25556;DHT22;13447;57.174;-2.112;2022-09-01T20:01:14;15.00;99.90
25556;DHT22;13447;57.174;-2.112;2022-09-01T20:03:44;15.00;99.90
25556;DHT22;13447;57.174;-2.112;2022-09-01T20:06:34;15.00;99.90
25556;DHT22;13447;57.174;-2.112;2022-09-01T20:09:23;14.90;99.90
25556;DHT22;13447;57.174;-2.112;2022-09-01T20:11:56;14.90;99.90
25556;DHT22;13447;57.174;-2.112;2022-09-01T20:17:03;14.90;99.90
25556;DHT22;13447;57.174;-2.112;2022-09-01T20:19:43;14.90;99.90
25556;DHT22;13447;57.174;-2.112;2022-09-01T20:25:05;14.80;99.90
25556;DHT22;13447;57.174;-2.112;2022-09-01T20:27:55;14.80;99.90
25556;DHT22;13447;57.174;-2.112;2022-09-01T20:30:34;14.70;99.90
25556;DHT22;13447;57.174;-2.112;2022-09-01T20:33:15;14.70;99.90
25556;DHT22;13447;57.174;-2.112;2022-09-01T20:35:54;14.60;99.90
25556;DHT22;13447;57.174;-2.112;2022-09-01T21:40:27;13.60;99.90
25556;DHT22;13447;57.174;-2.112;2022-09-01T21:43:07;13.60;99.90
25556;DHT22;13447;57.174;-2.112;2022-09-01T21:45:36;13.50;99.90
25556;DHT22;13447;57.174;-2.112;2022-09-01T21:48:04;13.40;99.90
25556;DHT22;13447;57.174;-2.112;2022-09-01T21:50:31;13.40;99.90
25556;DHT22;13447;57.174;-2.112;2022-09-01T21:52:58;13.30;99.90
25556;DHT22;13447;57.174;-2.112;2022-09-01T21:55:26;13.20;99.90
25556;DHT22;13447;57.174;-2.112;2022-09-01T21:57:53;13.20;99.90
25556;DHT22;13447;57.174;-2.112;2022-09-01T22:00:24;13.10;99.90
25556;DHT22;13447;57.174;-2.112;2022-09-01T22:02:52;13.10;99.90
25556;DHT22;13447;57.174;-2.112;2022-09-01T22:05:19;13.10;99.90
25556;DHT22;13447;57.174;-2.112;2022-09-01T22:07:46;13.00;99.90
25556;DHT22;13447;57.174;-2.112;2022-09-01T22:10:16;13.10;99.90
25556;DHT22;13447;57.174;-2.112;2022-09-01T22:12:45;13.10;99.90
25556;DHT22;13447;57.174;-2.112;2022-09-01T22:15:15;13.00;99.90
25556;DHT22;13447;57.174;-2.112;2022-09-01T22:17:43;13.00;99.90
25556;DHT22;13447;57.174;-2.112;2022-09-01T22:20:12;13.00;99.90
25556;DHT22;13447;57.174;-2.112;2022-09-01T22:22:40;12.90;99.90
25556;DHT22;13447;57.174;-2.112;2022-09-01T22:25:09;12.90;99.90
25556;DHT22;13447;57.174;-2.112;2022-09-01T22:27:37;12.80;99.90
25556;DHT22;13447;57.174;-2.112;2022-09-01T22:30:05;12.80;99.90
25556;DHT22;13447;57.174;-2.112;2022-09-01T22:32:34;12.80;99.90
25556;DHT22;13447;57.174;-2.112;2022-09-01T22:35:08;12.80;99.90
25556;DHT22;13447;57.174;-2.112;2022-09-01T22:37:37;12.70;99.90
25556;DHT22;13447;57.174;-2.112;2022-09-01T22:40:05;12.80;99.90
25556;DHT22;13447;57.174;-2.112;2022-09-01T22:42:33;12.70;99.90
25556;DHT22;13447;57.174;-2.112;2022-09-01T22:45:01;12.70;99.90
25556;DHT22;13447;57.174;-2.112;2022-09-01T22:47:28;12.60;99.90
25556;DHT22;13447;57.174;-2.112;2022-09-01T22:49:57;12.60;99.90
25556;DHT22;13447;57.174;-2.112;2022-09-01T22:52:24;12.60;99.90
25556;DHT22;13447;57.174;-2.112;2022-09-01T22:54:51;12.60;99.90
25556;DHT22;13447;57.174;-2.112;2022-09-01T22:57:19;12.50;99.90
25556;DHT22;13447;57.174;-2.112;2022-09-01T22:59:46;12.50;99.90
25556;DHT22;13447;57.174;-2.112;2022-09-01T23:02:13;12.50;99.90
25556;DHT22;13447;57.174;-2.112;2022-09-01T23:04:40;12.50;99.90
25556;DHT22;13447;57.174;-2.112;2022-09-01T23:07:08;12.40;99.90
25556;DHT22;13447;57.174;-2.112;2022-09-01T23:09:35;12.40;99.90
25556;DHT22;13447;57.174;-2.112;2022-09-01T23:12:02;12.30;99.90
25556;DHT22;13447;57.174;-2.112;2022-09-01T23:14:29;12.30;99.90
25556;DHT22;13447;57.174;-2.112;2022-09-01T23:16:56;12.30;99.90
25556;DHT22;13447;57.174;-2.112;2022-09-01T23:19:23;12.30;99.90
25556;DHT22;13447;57.174;-2.112;2022-09-01T23:21:51;12.30;99.90
25556;DHT22;13447;57.174;-2.112;2022-09-01T23:24:18;12.20;99.90
25556;DHT22;13447;57.174;-2.112;2022-09-01T23:26:47;12.30;99.90
25556;DHT22;13447;57.174;-2.112;2022-09-01T23:29:14;12.30;99.90
25556;DHT22;13447;57.174;-2.112;2022-09-01T23:31:41;12.20;99.90
25556;DHT22;13447;57.174;-2.112;2022-09-01T23:34:09;12.20;99.90
25556;DHT22;13447;57.174;-2.112;2022-09-01T23:36:39;12.10;99.90
25556;DHT22;13447;57.174;-2.112;2022-09-01T23:39:07;12.10;99.90
25556;DHT22;13447;57.174;-2.112;2022-09-01T23:41:36;12.10;99.90
25556;DHT22;13447;57.174;-2.112;2022-09-01T23:44:05;12.10;99.90
25556;DHT22;13447;57.174;-2.112;2022-09-01T23:46:41;12.10;99.90
25556;DHT22;13447;57.174;-2.112;2022-09-01T23:49:10;12.10;99.90
25556;DHT22;13447;57.174;-2.112;2022-09-01T23:51:37;12.10;99.90
25556;DHT22;13447;57.174;-2.112;2022-09-01T23:54:05;12.00;99.90
25556;DHT22;13447;57.174;-2.112;2022-09-01T23:56:32;12.00;99.90
25556;DHT22;13447;57.174;-2.112;2022-09-01T23:59:00;12.00;99.90
